Time;durP1;ratioP1;P1;durP2;ratioP2;P2;SDS_P1;SDS_P2;PMS_P1;PMS_P2;Temp;Humidity;BMP_temperature;BMP_pressure;BME280_temperature;BME280_humidity;BME280_pressure;Samples;Min_cycle;Max_cycle;Signal;HPM_P1;HPM_P2
2023/10/03 00:02:18;;;;;;;;;5.75;5.75;;;;;;;;5072845;27;45512;-48
2023/10/03 00:04:43;;;;;;;;;7.75;6.75;;;;;;;;5076337;27;46184;-48
2023/10/03 00:07:09;;;;;;;;;8.25;8.25;;;;;;;;5078138;27;45374;-46
2023/10/03 00:09:34;;;;;;;;;4.75;4.75;;;;;;;;5077257;27;45556;-48
2023/10/03 00:12:01;;;;;;;;;7.00;7.00;;;;;;;;5077114;27;45579;-45
2023/10/03 00:14:26;;;;;;;;;9.50;8.00;;;;;;;;5073501;27;46204;-47
2023/10/03 00:16:52;;;;;;;;;7.75;6.50;;;;;;;;5075771;27;45481;-45
2023/10/03 00:19:17;;;;;;;;;7.00;7.00;;;;;;;;5080589;27;45449;-47
2023/10/03 00:21:43;;;;;;;;;4.00;4.00;;;;;;;;5075988;27;45436;-47
2023/10/03 00:24:08;;;;;;;;;5.50;5.50;;;;;;;;5076772;27;46741;-46
2023/10/03 00:26:33;;;;;;;;;8.00;8.00;;;;;;;;5073697;27;45606;-47
2023/10/03 00:28:59;;;;;;;;;6.67;6.67;;;;;;;;5076453;27;45456;-49
2023/10/03 00:31:24;;;;;;;;;7.00;6.00;;;;;;;;5072478;27;45526;-46
2023/10/03 00:33:49;;;;;;;;;6.00;6.00;;;;;;;;5074621;27;45485;-50
2023/10/03 00:36:22;;;;;;;;;7.00;7.00;;;;;;;;5072435;27;45559;-47
2023/10/03 00:38:47;;;;;;;;;9.33;8.33;;;;;;;;5073604;27;47489;-47
2023/10/03 00:41:13;;;;;;;;;6.00;6.00;;;;;;;;5071722;27;45398;-45
2023/10/03 00:43:50;;;;;;;;;7.33;6.67;;;;;;;;5075345;27;45958;-48
2023/10/03 00:46:15;;;;;;;;;5.33;5.33;;;;;;;;5075475;27;45602;-48
2023/10/03 00:48:41;;;;;;;;;8.67;8.67;;;;;;;;5074512;27;45643;-47
2023/10/03 00:51:06;;;;;;;;;7.00;7.00;;;;;;;;5075488;27;47096;-46
2023/10/03 00:53:32;;;;;;;;;11.00;8.33;;;;;;;;5071824;27;46448;-46
2023/10/03 00:56:00;;;;;;;;;10.00;6.67;;;;;;;;5073943;27;45660;-46
2023/10/03 00:58:32;;;;;;;;;6.33;6.33;;;;;;;;5074547;27;45742;-46
2023/10/03 01:00:57;;;;;;;;;7.00;7.00;;;;;;;;5072685;27;45163;-46
2023/10/03 01:03:32;;;;;;;;;7.00;6.33;;;;;;;;5070594;27;46727;-46
2023/10/03 01:06:10;;;;;;;;;5.33;5.33;;;;;;;;5075871;27;45512;-45
2023/10/03 01:08:46;;;;;;;;;9.00;9.00;;;;;;;;5076014;27;45579;-45
2023/10/03 01:11:18;;;;;;;;;7.00;7.00;;;;;;;;5075988;27;46056;-47
2023/10/03 01:13:58;;;;;;;;;8.67;8.00;;;;;;;;5072862;27;46292;-46
2023/10/03 01:16:29;;;;;;;;;9.67;7.00;;;;;;;;5076196;27;45362;-46
2023/10/03 01:18:58;;;;;;;;;7.00;7.00;;;;;;;;5074739;27;45463;-45
2023/10/03 01:21:25;;;;;;;;;9.33;8.00;;;;;;;;5076131;27;45287;-45
2023/10/03 01:23:50;;;;;;;;;6.33;5.00;;;;;;;;5075228;27;47116;-46
2023/10/03 01:26:15;;;;;;;;;7.67;7.67;;;;;;;;5073537;27;45402;-45
2023/10/03 01:28:40;;;;;;;;;6.67;6.67;;;;;;;;5075800;27;45492;-45
2023/10/03 01:31:06;;;;;;;;;13.00;8.67;;;;;;;;5065638;27;45388;-46
2023/10/03 01:33:32;;;;;;;;;12.33;10.33;;;;;;;;5074694;27;45379;-45
2023/10/03 01:35:58;;;;;;;;;11.00;10.33;;;;;;;;5076776;27;46377;-46
2023/10/03 01:38:24;;;;;;;;;8.33;8.33;;;;;;;;5073098;27;45334;-48
2023/10/03 01:40:50;;;;;;;;;10.67;10.67;;;;;;;;5075621;27;45557;-46
2023/10/03 01:43:16;;;;;;;;;10.33;9.00;;;;;;;;5074673;27;46264;-46
2023/10/03 01:45:41;;;;;;;;;9.00;9.00;;;;;;;;5071248;27;45537;-48
2023/10/03 01:48:07;;;;;;;;;9.67;9.33;;;;;;;;5076608;27;45716;-46
2023/10/03 01:50:34;;;;;;;;;11.00;11.00;;;;;;;;5071905;27;45370;-46
2023/10/03 01:52:59;;;;;;;;;10.00;9.00;;;;;;;;5074013;27;45602;-46
2023/10/03 01:55:24;;;;;;;;;11.67;10.00;;;;;;;;5069669;27;45433;-46
2023/10/03 01:57:50;;;;;;;;;13.33;10.33;;;;;;;;5077068;27;45388;-49
2023/10/03 02:00:28;;;;;;;;;10.33;8.33;;;;;;;;5072313;27;45498;-45
2023/10/03 02:02:57;;;;;;;;;12.33;10.33;;;;;;;;5080418;27;47167;-45
2023/10/03 02:05:26;;;;;;;;;10.33;10.00;;;;;;;;5068321;27;45729;-45
2023/10/03 02:07:52;;;;;;;;;11.33;10.33;;;;;;;;5076364;27;46729;-48
2023/10/03 02:10:18;;;;;;;;;9.00;8.67;;;;;;;;5073192;27;45450;-45
2023/10/03 02:12:50;;;;;;;;;13.67;11.00;;;;;;;;5069114;27;46152;-45
2023/10/03 02:15:22;;;;;;;;;10.33;9.67;;;;;;;;5076365;27;45417;-45
2023/10/03 02:17:54;;;;;;;;;12.00;12.00;;;;;;;;5076872;27;45445;-47
2023/10/03 02:20:20;;;;;;;;;10.67;10.00;;;;;;;;5078153;27;45227;-46
2023/10/03 02:22:55;;;;;;;;;8.67;8.67;;;;;;;;5078876;27;46326;-46
2023/10/03 02:25:30;;;;;;;;;8.67;8.67;;;;;;;;5075596;27;45445;-47
2023/10/03 02:27:56;;;;;;;;;11.33;11.33;;;;;;;;5074940;27;45576;-45
2023/10/03 02:30:29;;;;;;;;;11.00;9.67;;;;;;;;5076508;27;45488;-46
2023/10/03 02:32:54;;;;;;;;;12.00;12.00;;;;;;;;5078655;27;45508;-47
2023/10/03 02:35:22;;;;;;;;;7.00;7.00;;;;;;;;5077979;27;45367;-45
2023/10/03 02:37:47;;;;;;;;;13.00;11.00;;;;;;;;5077199;27;45464;-44
2023/10/03 02:40:14;;;;;;;;;9.00;9.00;;;;;;;;5077011;27;45757;-44
2023/10/03 02:42:40;;;;;;;;;11.33;11.33;;;;;;;;5075462;27;45532;-46
2023/10/03 02:45:06;;;;;;;;;12.67;10.67;;;;;;;;5077509;27;45689;-49
2023/10/03 02:47:31;;;;;;;;;11.33;10.33;;;;;;;;5077810;27;45537;-46
2023/10/03 02:49:58;;;;;;;;;12.67;11.67;;;;;;;;5077152;27;45633;-50
2023/10/03 02:52:24;;;;;;;;;13.33;13.33;;;;;;;;5080120;27;45474;-46
2023/10/03 02:54:49;;;;;;;;;13.00;12.00;;;;;;;;5077565;27;45405;-45
2023/10/03 02:57:15;;;;;;;;;14.33;13.00;;;;;;;;5076408;27;45794;-44
2023/10/03 02:59:40;;;;;;;;;9.33;9.00;;;;;;;;5076880;27;45853;-48
2023/10/03 03:02:06;;;;;;;;;11.67;10.33;;;;;;;;5077351;27;45464;-48
2023/10/03 03:04:33;;;;;;;;;12.67;11.00;;;;;;;;5075565;27;45367;-48
2023/10/03 03:07:03;;;;;;;;;12.33;11.67;;;;;;;;5078479;27;45321;-49
2023/10/03 03:09:28;;;;;;;;;13.33;12.00;;;;;;;;5076172;27;45679;-46
2023/10/03 03:11:55;;;;;;;;;13.33;10.00;;;;;;;;5077053;27;46137;-45
2023/10/03 03:14:20;;;;;;;;;10.33;10.33;;;;;;;;5076897;27;45433;-45
2023/10/03 03:16:47;;;;;;;;;12.00;10.67;;;;;;;;5078685;27;45598;-44
2023/10/03 03:19:14;;;;;;;;;11.00;9.33;;;;;;;;5071925;27;45670;-45
2023/10/03 03:21:40;;;;;;;;;9.33;8.67;;;;;;;;5077832;27;46322;-48
2023/10/03 03:24:08;;;;;;;;;10.67;10.67;;;;;;;;5077931;27;45473;-45
2023/10/03 03:26:36;;;;;;;;;11.00;10.00;;;;;;;;5062909;27;45927;-45
2023/10/03 03:29:05;;;;;;;;;7.67;6.67;;;;;;;;5076215;27;45564;-48
2023/10/03 03:31:34;;;;;;;;;11.00;11.00;;;;;;;;5074929;27;45369;-45
2023/10/03 03:34:02;;;;;;;;;14.00;13.00;;;;;;;;5077122;27;45883;-44
2023/10/03 03:36:30;;;;;;;;;10.33;10.00;;;;;;;;5077963;27;45666;-48
2023/10/03 03:38:58;;;;;;;;;12.67;12.67;;;;;;;;5075133;27;45812;-44
2023/10/03 03:41:23;;;;;;;;;12.00;10.00;;;;;;;;5075184;27;46982;-47
2023/10/03 03:43:49;;;;;;;;;11.67;10.67;;;;;;;;5078793;28;45444;-45
2023/10/03 03:46:14;;;;;;;;;9.00;9.00;;;;;;;;5074409;27;45404;-46
2023/10/03 03:48:40;;;;;;;;;11.00;9.00;;;;;;;;5076414;27;45336;-48
2023/10/03 03:51:06;;;;;;;;;9.00;9.00;;;;;;;;5075257;27;46586;-45
2023/10/03 03:53:32;;;;;;;;;11.67;10.00;;;;;;;;5075668;27;45391;-49
2023/10/03 03:55:58;;;;;;;;;10.00;10.00;;;;;;;;5076505;27;45381;-46
2023/10/03 03:58:24;;;;;;;;;10.67;9.00;;;;;;;;5074166;27;45449;-45
2023/10/03 04:00:51;;;;;;;;;11.00;9.33;;;;;;;;5073783;27;45336;-44
2023/10/03 04:03:16;;;;;;;;;11.67;8.67;;;;;;;;5076104;27;45553;-51
2023/10/03 04:05:42;;;;;;;;;9.33;8.00;;;;;;;;5076739;27;45432;-45
2023/10/03 04:08:07;;;;;;;;;7.67;7.67;;;;;;;;5078039;27;45629;-45
2023/10/03 04:10:36;;;;;;;;;11.00;8.00;;;;;;;;5075619;27;46032;-45
2023/10/03 04:13:04;;;;;;;;;8.67;8.00;;;;;;;;5079281;27;45903;-47
2023/10/03 04:15:30;;;;;;;;;7.00;7.00;;;;;;;;5074586;27;45463;-46
2023/10/03 04:17:55;;;;;;;;;7.67;7.67;;;;;;;;5078074;27;45554;-44
2023/10/03 04:20:30;;;;;;;;;13.33;9.67;;;;;;;;5074508;27;45469;-44
2023/10/03 04:22:57;;;;;;;;;7.33;7.33;;;;;;;;5077688;27;45358;-48
2023/10/03 04:25:22;;;;;;;;;8.00;8.00;;;;;;;;5074317;27;45400;-46
2023/10/03 04:27:48;;;;;;;;;7.00;7.00;;;;;;;;5078767;27;45519;-45
2023/10/03 04:30:13;;;;;;;;;6.00;6.00;;;;;;;;5073521;27;46053;-49
2023/10/03 04:32:39;;;;;;;;;6.67;6.33;;;;;;;;5079852;27;45377;-46
2023/10/03 04:35:05;;;;;;;;;4.33;4.33;;;;;;;;5076867;27;45390;-48
2023/10/03 04:37:31;;;;;;;;;5.75;5.75;;;;;;;;5078706;27;45480;-49
2023/10/03 04:39:56;;;;;;;;;6.00;6.00;;;;;;;;5073456;27;46567;-45
2023/10/03 04:42:22;;;;;;;;;5.25;5.25;;;;;;;;5073849;27;45240;-47
2023/10/03 04:44:47;;;;;;;;;5.00;4.00;;;;;;;;5074722;27;45483;-48
2023/10/03 04:47:12;;;;;;;;;5.00;5.00;;;;;;;;5069279;27;45679;-45
2023/10/03 04:49:38;;;;;;;;;8.00;6.50;;;;;;;;5071211;28;45647;-44
2023/10/03 04:52:05;;;;;;;;;4.00;4.00;;;;;;;;5073578;27;45665;-44
2023/10/03 04:54:31;;;;;;;;;7.00;7.00;;;;;;;;5074335;27;45281;-45
2023/10/03 04:56:56;;;;;;;;;4.33;4.33;;;;;;;;5074470;27;45980;-44
2023/10/03 04:59:21;;;;;;;;;7.33;7.33;;;;;;;;5070765;27;46266;-46
2023/10/03 05:01:46;;;;;;;;;8.00;7.33;;;;;;;;5071548;27;46392;-49
2023/10/03 05:04:12;;;;;;;;;10.33;7.00;;;;;;;;5067910;27;45308;-47
2023/10/03 05:06:37;;;;;;;;;6.00;5.00;;;;;;;;5074115;27;45276;-44
2023/10/03 05:09:04;;;;;;;;;7.00;7.00;;;;;;;;5072724;27;45983;-47
2023/10/03 05:11:30;;;;;;;;;5.00;5.00;;;;;;;;5074332;27;45536;-47
2023/10/03 05:13:55;;;;;;;;;5.00;5.00;;;;;;;;5075859;27;45474;-48
2023/10/03 05:16:20;;;;;;;;;6.33;6.00;;;;;;;;5075196;27;45708;-45
2023/10/03 05:18:45;;;;;;;;;6.00;5.00;;;;;;;;5075089;27;45374;-45
2023/10/03 05:21:11;;;;;;;;;6.67;6.67;;;;;;;;5074769;27;46022;-46
2023/10/03 05:23:36;;;;;;;;;6.00;6.00;;;;;;;;5075219;27;45445;-45
2023/10/03 05:26:02;;;;;;;;;8.33;6.67;;;;;;;;5075212;27;45504;-45
2023/10/03 05:28:27;;;;;;;;;9.67;7.00;;;;;;;;5074583;27;46177;-45
2023/10/03 05:30:58;;;;;;;;;5.33;5.33;;;;;;;;5074647;27;45365;-47
2023/10/03 05:33:23;;;;;;;;;4.67;4.67;;;;;;;;5071524;27;45301;-52
2023/10/03 05:35:48;;;;;;;;;4.50;4.50;;;;;;;;5074031;27;45783;-47
2023/10/03 05:38:13;;;;;;;;;6.33;6.33;;;;;;;;5073822;27;48403;-46
2023/10/03 05:40:39;;;;;;;;;8.00;5.25;;;;;;;;5074501;27;45433;-45
2023/10/03 05:43:05;;;;;;;;;7.33;5.00;;;;;;;;5072226;27;45542;-49
2023/10/03 05:45:30;;;;;;;;;5.00;5.00;;;;;;;;5071336;27;45243;-47
2023/10/03 05:47:55;;;;;;;;;6.00;4.00;;;;;;;;5070716;27;46111;-47
2023/10/03 05:50:21;;;;;;;;;6.00;3.75;;;;;;;;5074339;27;45546;-44
2023/10/03 05:52:47;;;;;;;;;6.00;4.00;;;;;;;;5080251;27;45477;-48
2023/10/03 05:55:12;;;;;;;;;6.33;6.00;;;;;;;;5075742;27;45510;-46
2023/10/03 05:57:40;;;;;;;;;6.00;4.00;;;;;;;;5074354;27;46246;-45
2023/10/03 06:00:08;;;;;;;;;5.00;5.00;;;;;;;;5077110;27;45473;-46
2023/10/03 06:02:34;;;;;;;;;3.25;3.25;;;;;;;;5078103;27;45534;-46
2023/10/03 06:04:59;;;;;;;;;4.00;4.00;;;;;;;;5079634;27;46605;-46
2023/10/03 06:07:25;;;;;;;;;4.67;4.00;;;;;;;;5077899;27;45329;-47
2023/10/03 06:09:50;;;;;;;;;5.67;4.00;;;;;;;;5075579;27;45459;-46
2023/10/03 06:12:15;;;;;;;;;5.00;4.33;;;;;;;;5076602;27;45775;-46
2023/10/03 06:14:40;;;;;;;;;7.00;5.00;;;;;;;;5076608;27;45464;-48
2023/10/03 06:17:07;;;;;;;;;6.67;6.00;;;;;;;;5074746;27;45393;-47
2023/10/03 06:19:32;;;;;;;;;5.33;5.33;;;;;;;;5079194;27;45531;-47
2023/10/03 06:21:57;;;;;;;;;7.00;5.00;;;;;;;;5080566;28;46751;-47
2023/10/03 06:24:25;;;;;;;;;4.67;3.33;;;;;;;;5073100;27;45681;-50
2023/10/03 06:26:50;;;;;;;;;5.00;3.00;;;;;;;;5077386;27;45810;-49
2023/10/03 06:29:16;;;;;;;;;5.00;5.00;;;;;;;;5078298;28;45438;-49
2023/10/03 06:31:42;;;;;;;;;5.33;5.33;;;;;;;;5078518;28;45449;-48
2023/10/03 06:34:07;;;;;;;;;5.00;3.67;;;;;;;;5077695;28;45436;-52
2023/10/03 06:36:32;;;;;;;;;7.00;6.00;;;;;;;;5078114;28;46328;-50
2023/10/03 06:38:59;;;;;;;;;4.00;4.00;;;;;;;;5080384;28;45397;-49
2023/10/03 06:41:25;;;;;;;;;4.33;4.00;;;;;;;;5079440;27;45461;-47
2023/10/03 06:43:51;;;;;;;;;5.00;5.00;;;;;;;;5075860;27;45428;-50
2023/10/03 06:46:16;;;;;;;;;5.00;5.00;;;;;;;;5077516;28;45406;-48
2023/10/03 06:48:52;;;;;;;;;5.00;5.00;;;;;;;;5080161;28;45523;-51
2023/10/03 06:51:17;;;;;;;;;5.67;4.00;;;;;;;;5074894;27;45424;-50
2023/10/03 06:53:46;;;;;;;;;5.67;4.00;;;;;;;;5075112;27;45536;-52
2023/10/03 06:56:12;;;;;;;;;9.33;5.00;;;;;;;;5078044;27;45650;-50
2023/10/03 06:58:37;;;;;;;;;3.00;3.00;;;;;;;;5077963;27;45495;-51
2023/10/03 07:01:02;;;;;;;;;7.00;5.00;;;;;;;;5067669;27;45899;-52
2023/10/03 07:03:28;;;;;;;;;6.33;5.67;;;;;;;;5051117;27;46563;-52
2023/10/03 07:05:54;;;;;;;;;3.67;3.00;;;;;;;;5077351;27;47085;-52
2023/10/03 07:08:19;;;;;;;;;4.00;4.00;;;;;;;;5076710;27;45700;-52
2023/10/03 07:10:44;;;;;;;;;4.67;4.67;;;;;;;;5082938;27;45785;-51
2023/10/03 07:13:11;;;;;;;;;6.00;4.00;;;;;;;;5078750;27;45577;-50
2023/10/03 07:15:36;;;;;;;;;6.33;6.33;;;;;;;;5079864;27;45825;-51
2023/10/03 07:18:03;;;;;;;;;3.33;3.33;;;;;;;;5080726;27;45525;-49
2023/10/03 07:20:28;;;;;;;;;4.00;4.00;;;;;;;;5079371;27;45454;-52
2023/10/03 07:22:53;;;;;;;;;4.33;4.33;;;;;;;;5083775;27;45506;-52
2023/10/03 07:25:19;;;;;;;;;3.33;3.00;;;;;;;;5081762;27;45571;-52
2023/10/03 07:27:45;;;;;;;;;5.00;5.00;;;;;;;;5079918;28;45508;-52
2023/10/03 07:30:11;;;;;;;;;4.00;4.00;;;;;;;;5071753;27;45520;-54
2023/10/03 07:32:36;;;;;;;;;4.00;4.00;;;;;;;;5076127;27;45388;-53
2023/10/03 07:35:02;;;;;;;;;4.33;4.33;;;;;;;;5063541;28;45560;-53
2023/10/03 07:37:27;;;;;;;;;4.00;4.00;;;;;;;;5076165;28;45286;-53
2023/10/03 07:39:53;;;;;;;;;4.33;4.33;;;;;;;;5078225;27;45448;-52
2023/10/03 07:42:21;;;;;;;;;6.67;5.00;;;;;;;;5074172;27;45587;-53
2023/10/03 07:44:46;;;;;;;;;4.67;4.67;;;;;;;;5071782;27;46272;-52
2023/10/03 07:47:13;;;;;;;;;4.00;4.00;;;;;;;;5073424;27;45777;-50
2023/10/03 07:49:42;;;;;;;;;4.33;4.33;;;;;;;;5073656;27;45471;-52
2023/10/03 07:52:07;;;;;;;;;3.00;3.00;;;;;;;;5071274;27;45422;-52
2023/10/03 07:54:34;;;;;;;;;6.00;6.00;;;;;;;;5071777;27;45583;-53
2023/10/03 07:57:06;;;;;;;;;5.00;5.00;;;;;;;;5076126;27;45462;-51
2023/10/03 07:59:32;;;;;;;;;5.33;5.33;;;;;;;;5076596;27;45361;-52
2023/10/03 08:02:04;;;;;;;;;4.00;4.00;;;;;;;;5065364;27;45230;-49
2023/10/03 08:04:31;;;;;;;;;6.67;5.00;;;;;;;;5077182;27;46131;-52
2023/10/03 08:06:56;;;;;;;;;3.67;3.67;;;;;;;;5078681;27;45543;-52
2023/10/03 08:09:24;;;;;;;;;5.00;3.67;;;;;;;;5076259;27;45373;-50
2023/10/03 08:11:52;;;;;;;;;3.00;3.00;;;;;;;;5071298;28;45560;-50
2023/10/03 08:14:17;;;;;;;;;3.75;3.00;;;;;;;;5075343;27;45603;-50
2023/10/03 08:16:44;;;;;;;;;5.00;3.00;;;;;;;;5077278;27;45647;-53
2023/10/03 08:19:15;;;;;;;;;3.00;3.00;;;;;;;;5079575;27;45390;-50
2023/10/03 08:21:43;;;;;;;;;2.67;2.67;;;;;;;;5075623;27;45768;-48
2023/10/03 08:24:14;;;;;;;;;4.00;2.67;;;;;;;;5077453;27;47091;-52
2023/10/03 08:26:46;;;;;;;;;3.00;2.00;;;;;;;;5077505;27;45724;-52
2023/10/03 08:29:11;;;;;;;;;2.00;2.00;;;;;;;;5075325;27;45478;-53
2023/10/03 08:31:38;;;;;;;;;4.00;3.00;;;;;;;;5075806;27;45391;-52
2023/10/03 08:34:10;;;;;;;;;2.00;2.00;;;;;;;;5074386;27;46126;-51
2023/10/03 08:36:37;;;;;;;;;3.33;2.33;;;;;;;;5076202;27;45287;-53
2023/10/03 08:39:12;;;;;;;;;1.33;1.33;;;;;;;;5073932;27;45303;-52
2023/10/03 08:41:45;;;;;;;;;3.67;3.67;;;;;;;;5074086;27;46666;-51
2023/10/03 08:44:12;;;;;;;;;3.00;3.00;;;;;;;;5077303;27;46175;-52
2023/10/03 08:46:40;;;;;;;;;4.67;3.00;;;;;;;;5073669;27;45163;-51
2023/10/03 08:49:08;;;;;;;;;3.00;1.33;;;;;;;;5069301;27;45377;-51
2023/10/03 08:51:35;;;;;;;;;2.33;2.00;;;;;;;;5075256;27;45502;-52
2023/10/03 08:54:09;;;;;;;;;2.00;2.00;;;;;;;;5072721;27;47237;-51
2023/10/03 08:56:35;;;;;;;;;4.00;2.33;;;;;;;;5072779;27;45562;-52
2023/10/03 08:59:01;;;;;;;;;3.00;3.00;;;;;;;;5076458;28;45419;-49
2023/10/03 09:01:26;;;;;;;;;6.33;5.00;;;;;;;;5071792;28;45263;-51
2023/10/03 09:03:58;;;;;;;;;4.67;3.00;;;;;;;;5071859;28;46069;-51
2023/10/03 09:06:25;;;;;;;;;2.00;2.00;;;;;;;;5066474;27;45362;-52
2023/10/03 09:08:52;;;;;;;;;1.00;1.00;;;;;;;;5078452;27;45563;-52
2023/10/03 09:11:18;;;;;;;;;1.00;1.00;;;;;;;;5077963;27;45468;-51
2023/10/03 09:13:47;;;;;;;;;3.00;1.50;;;;;;;;5080240;27;45647;-51
2023/10/03 09:16:14;;;;;;;;;3.25;1.00;;;;;;;;5078710;27;45414;-50
2023/10/03 09:18:40;;;;;;;;;3.75;3.00;;;;;;;;5076100;27;45545;-51
2023/10/03 09:21:06;;;;;;;;;3.25;1.00;;;;;;;;5079093;27;45559;-51
2023/10/03 09:23:39;;;;;;;;;2.00;0.25;;;;;;;;5078042;27;45470;-52
2023/10/03 09:26:06;;;;;;;;;1.50;1.00;;;;;;;;5081629;27;45458;-52
2023/10/03 09:28:40;;;;;;;;;0.00;0.00;;;;;;;;5084214;27;45407;-56
2023/10/03 09:31:08;;;;;;;;;2.00;1.00;;;;;;;;5084140;27;45962;-50
2023/10/03 09:33:38;;;;;;;;;1.50;0.75;;;;;;;;5083165;27;47471;-53
2023/10/03 09:36:04;;;;;;;;;0.00;0.00;;;;;;;;5082206;27;45490;-49
2023/10/03 09:38:33;;;;;;;;;0.25;0.25;;;;;;;;5084612;27;45518;-52
2023/10/03 09:40:59;;;;;;;;;1.00;1.00;;;;;;;;5083344;27;45181;-51
2023/10/03 09:43:29;;;;;;;;;2.00;1.00;;;;;;;;5084435;27;46145;-52
2023/10/03 09:46:00;;;;;;;;;3.00;1.00;;;;;;;;5082496;27;45455;-53
2023/10/03 09:48:25;;;;;;;;;0.50;0.50;;;;;;;;5082361;27;45419;-54
2023/10/03 09:50:53;;;;;;;;;0.25;0.25;;;;;;;;5083514;27;45325;-52
2023/10/03 09:53:19;;;;;;;;;0.50;0.50;;;;;;;;5083655;27;46969;-52
2023/10/03 09:55:46;;;;;;;;;2.00;1.00;;;;;;;;5085226;27;45291;-53
2023/10/03 09:58:13;;;;;;;;;0.25;0.25;;;;;;;;5066698;27;45558;-49
2023/10/03 10:00:56;;;;;;;;;0.50;0.50;;;;;;;;5080879;27;45267;-49
2023/10/03 10:03:26;;;;;;;;;0.50;0.50;;;;;;;;5079882;27;45409;-51
2023/10/03 10:06:12;;;;;;;;;1.00;1.00;;;;;;;;5080465;27;45239;-52
2023/10/03 10:08:58;;;;;;;;;1.00;0.00;;;;;;;;5081101;27;45249;-53
2023/10/03 10:11:26;;;;;;;;;1.00;1.00;;;;;;;;5082505;27;45619;-53
2023/10/03 10:14:01;;;;;;;;;1.50;1.00;;;;;;;;5082427;27;45458;-51
2023/10/03 10:16:28;;;;;;;;;0.00;0.00;;;;;;;;5079940;27;45517;-52
2023/10/03 10:18:54;;;;;;;;;1.50;1.00;;;;;;;;5081060;27;45527;-52
2023/10/03 10:21:19;;;;;;;;;1.50;1.00;;;;;;;;5080880;27;46201;-51
2023/10/03 10:24:03;;;;;;;;;1.20;1.20;;;;;;;;5081485;27;46442;-53
2023/10/03 10:26:30;;;;;;;;;1.00;1.00;;;;;;;;5081748;27;45350;-53
2023/10/03 10:29:03;;;;;;;;;3.00;1.50;;;;;;;;5081680;27;45393;-53
2023/10/03 10:31:34;;;;;;;;;1.00;0.25;;;;;;;;5082502;27;45408;-52
2023/10/03 10:34:22;;;;;;;;;2.25;1.00;;;;;;;;5083121;27;46197;-53
2023/10/03 10:36:54;;;;;;;;;1.00;1.00;;;;;;;;5073729;27;45421;-53
2023/10/03 10:39:23;;;;;;;;;2.00;1.00;;;;;;;;5082609;27;45383;-52
2023/10/03 10:42:06;;;;;;;;;1.00;1.00;;;;;;;;5081816;27;45614;-52
2023/10/03 10:44:32;;;;;;;;;2.00;2.00;;;;;;;;5081228;27;45332;-50
2023/10/03 10:47:04;;;;;;;;;2.00;0.75;;;;;;;;5082256;27;45404;-53
2023/10/03 10:49:40;;;;;;;;;1.00;1.00;;;;;;;;5083116;27;45314;-52
2023/10/03 10:52:09;;;;;;;;;0.75;0.75;;;;;;;;5085450;27;45401;-53
2023/10/03 10:54:36;;;;;;;;;2.50;1.00;;;;;;;;5083451;27;47119;-51
2023/10/03 10:57:10;;;;;;;;;2.25;2.25;;;;;;;;5078537;27;45603;-52
2023/10/03 10:59:36;;;;;;;;;2.00;2.00;;;;;;;;5072179;27;45596;-52
2023/10/03 11:02:06;;;;;;;;;2.75;2.00;;;;;;;;5079580;27;45344;-52
2023/10/03 11:04:33;;;;;;;;;2.00;2.00;;;;;;;;5080592;27;46240;-53
2023/10/03 11:06:58;;;;;;;;;4.50;3.00;;;;;;;;5080176;27;45376;-52
2023/10/03 11:09:23;;;;;;;;;1.75;1.75;;;;;;;;5080037;27;45384;-50
2023/10/03 11:11:51;;;;;;;;;4.75;3.00;;;;;;;;5081759;27;45220;-52
2023/10/03 11:14:26;;;;;;;;;2.00;2.00;;;;;;;;5079978;27;46111;-53
2023/10/03 11:16:51;;;;;;;;;4.25;3.00;;;;;;;;5081343;27;45346;-52
2023/10/03 11:19:17;;;;;;;;;1.75;1.75;;;;;;;;5080651;27;45317;-49
2023/10/03 11:21:42;;;;;;;;;2.00;2.00;;;;;;;;5082290;27;45375;-52
2023/10/03 11:24:13;;;;;;;;;4.00;3.00;;;;;;;;5081913;27;45464;-52
2023/10/03 11:26:45;;;;;;;;;3.25;3.25;;;;;;;;5080971;27;45330;-52
2023/10/03 11:29:11;;;;;;;;;3.00;3.00;;;;;;;;5081492;27;45887;-50
2023/10/03 11:31:40;;;;;;;;;3.00;2.00;;;;;;;;5081985;27;45446;-51
2023/10/03 11:34:06;;;;;;;;;4.00;2.50;;;;;;;;5079322;27;46187;-52
2023/10/03 11:36:43;;;;;;;;;3.25;3.00;;;;;;;;5080364;28;45619;-52
2023/10/03 11:39:13;;;;;;;;;3.00;2.75;;;;;;;;5080935;27;46565;-52
2023/10/03 11:41:38;;;;;;;;;2.00;2.00;;;;;;;;5079171;27;45509;-52
2023/10/03 11:44:05;;;;;;;;;2.00;2.00;;;;;;;;5082994;27;46787;-49
2023/10/03 11:46:43;;;;;;;;;0.75;0.75;;;;;;;;5080847;27;45362;-52
2023/10/03 11:49:08;;;;;;;;;4.50;2.00;;;;;;;;5078615;27;45465;-52
2023/10/03 11:51:36;;;;;;;;;2.75;2.00;;;;;;;;5081756;27;45330;-52
2023/10/03 11:54:01;;;;;;;;;3.50;3.00;;;;;;;;5084278;27;45426;-53
2023/10/03 11:56:26;;;;;;;;;2.00;2.00;;;;;;;;5081020;27;45456;-52
2023/10/03 11:58:54;;;;;;;;;2.00;1.50;;;;;;;;5073352;27;45386;-51
2023/10/03 12:01:19;;;;;;;;;3.50;2.25;;;;;;;;5091299;27;45216;-54
2023/10/03 12:03:44;;;;;;;;;4.00;4.00;;;;;;;;5095602;27;46302;-54
2023/10/03 12:06:09;;;;;;;;;0.00;0.00;;;;;;;;5087013;27;45381;-52
2023/10/03 12:08:40;;;;;;;;;2.50;1.00;;;;;;;;5097318;27;45400;-53
2023/10/03 12:11:06;;;;;;;;;3.50;3.50;;;;;;;;5084103;27;45473;-51
2023/10/03 12:13:31;;;;;;;;;2.00;2.00;;;;;;;;5090101;27;45503;-52
2023/10/03 12:15:56;;;;;;;;;2.00;2.00;;;;;;;;5090264;27;45320;-52
2023/10/03 12:18:22;;;;;;;;;1.75;1.75;;;;;;;;5092903;27;45412;-53
2023/10/03 12:20:47;;;;;;;;;2.25;2.25;;;;;;;;5086183;27;45652;-53
2023/10/03 12:23:15;;;;;;;;;1.00;1.00;;;;;;;;5079378;27;46877;-54
2023/10/03 12:25:41;;;;;;;;;4.50;3.25;;;;;;;;5077390;27;45358;-51
2023/10/03 12:28:06;;;;;;;;;3.00;1.00;;;;;;;;5076853;27;45333;-50
2023/10/03 12:30:31;;;;;;;;;3.00;3.00;;;;;;;;5077642;27;45311;-51
2023/10/03 12:32:56;;;;;;;;;1.75;1.75;;;;;;;;5079799;27;45239;-51
2023/10/03 12:35:21;;;;;;;;;5.75;1.50;;;;;;;;5078706;27;45383;-52
2023/10/03 12:37:48;;;;;;;;;2.75;2.75;;;;;;;;5079909;27;45297;-53
2023/10/03 12:40:16;;;;;;;;;1.75;1.75;;;;;;;;5079161;27;45448;-53
2023/10/03 12:42:43;;;;;;;;;4.25;2.25;;;;;;;;5078679;27;45783;-53
2023/10/03 12:45:10;;;;;;;;;4.00;3.00;;;;;;;;5080516;27;45172;-51
2023/10/03 12:47:35;;;;;;;;;3.75;2.00;;;;;;;;5079004;27;45553;-55
2023/10/03 12:50:01;;;;;;;;;2.33;2.33;;;;;;;;5078794;27;45841;-53
2023/10/03 12:52:29;;;;;;;;;7.00;1.25;;;;;;;;5079481;27;45362;-53
2023/10/03 12:54:55;;;;;;;;;1.25;1.25;;;;;;;;5079463;27;45457;-49
2023/10/03 12:57:21;;;;;;;;;1.00;1.00;;;;;;;;5070449;27;45449;-52
2023/10/03 12:59:52;;;;;;;;;2.00;2.00;;;;;;;;5083830;27;45488;-51
2023/10/03 13:02:19;;;;;;;;;1.50;1.50;;;;;;;;5078114;27;46944;-52
2023/10/03 13:04:45;;;;;;;;;1.00;1.00;;;;;;;;5081106;27;45407;-49
2023/10/03 13:07:11;;;;;;;;;2.00;2.00;;;;;;;;5079396;27;45409;-50
2023/10/03 13:09:37;;;;;;;;;2.00;2.00;;;;;;;;5076926;27;45437;-51
2023/10/03 13:12:03;;;;;;;;;1.00;1.00;;;;;;;;5078316;27;47123;-52
2023/10/03 13:14:29;;;;;;;;;0.00;0.00;;;;;;;;5080110;27;45676;-48
2023/10/03 13:16:59;;;;;;;;;1.00;1.00;;;;;;;;5080659;27;45267;-51
2023/10/03 13:19:24;;;;;;;;;1.00;1.00;;;;;;;;5078450;27;45438;-51
2023/10/03 13:21:49;;;;;;;;;7.00;1.75;;;;;;;;5078837;27;45619;-52
2023/10/03 13:24:18;;;;;;;;;1.00;1.00;;;;;;;;5079673;27;45255;-52
2023/10/03 13:26:43;;;;;;;;;0.50;0.50;;;;;;;;5079469;27;45285;-52
2023/10/03 13:29:08;;;;;;;;;3.00;1.00;;;;;;;;5082253;27;45269;-52
2023/10/03 13:31:36;;;;;;;;;1.00;1.00;;;;;;;;5078591;27;45571;-51
2023/10/03 13:34:01;;;;;;;;;1.50;1.00;;;;;;;;5080126;27;45443;-51
2023/10/03 13:36:26;;;;;;;;;1.75;1.75;;;;;;;;5080818;27;45255;-52
2023/10/03 13:38:54;;;;;;;;;1.00;1.00;;;;;;;;5078021;27;45547;-51
2023/10/03 13:41:19;;;;;;;;;1.00;1.00;;;;;;;;5079088;27;46361;-53
2023/10/03 13:43:44;;;;;;;;;1.75;1.75;;;;;;;;5078808;27;45495;-52
2023/10/03 13:46:11;;;;;;;;;2.00;1.00;;;;;;;;5080290;27;45425;-52
2023/10/03 13:48:37;;;;;;;;;1.75;0.00;;;;;;;;5079850;27;45307;-52
2023/10/03 13:51:03;;;;;;;;;2.00;1.00;;;;;;;;5079599;27;45992;-53
2023/10/03 13:53:28;;;;;;;;;1.50;0.00;;;;;;;;5082040;27;45264;-48
2023/10/03 13:55:54;;;;;;;;;1.25;0.75;;;;;;;;5078406;27;45341;-51
2023/10/03 13:58:19;;;;;;;;;3.25;1.00;;;;;;;;5065068;27;45342;-51
2023/10/03 14:00:44;;;;;;;;;2.67;2.00;;;;;;;;5095419;27;45363;-51
2023/10/03 14:03:17;;;;;;;;;2.25;1.50;;;;;;;;5090083;27;45445;-52
2023/10/03 14:05:42;;;;;;;;;2.00;1.00;;;;;;;;5078839;27;45283;-53
2023/10/03 14:08:08;;;;;;;;;1.50;1.00;;;;;;;;5079269;27;45381;-52
2023/10/03 14:10:40;;;;;;;;;1.50;0.00;;;;;;;;5079118;27;46180;-50
2023/10/03 14:13:06;;;;;;;;;1.00;1.00;;;;;;;;5080708;27;45448;-52
2023/10/03 14:15:33;;;;;;;;;3.00;1.50;;;;;;;;5082699;27;45349;-51
2023/10/03 14:17:58;;;;;;;;;1.00;1.00;;;;;;;;5082401;27;45538;-52
2023/10/03 14:20:24;;;;;;;;;2.00;1.00;;;;;;;;5080960;27;46230;-51
2023/10/03 14:22:51;;;;;;;;;0.25;0.25;;;;;;;;5082403;27;45248;-49
2023/10/03 14:25:17;;;;;;;;;0.75;0.75;;;;;;;;5082370;27;45299;-52
2023/10/03 14:27:43;;;;;;;;;2.00;2.00;;;;;;;;5083560;27;45433;-51
2023/10/03 14:30:09;;;;;;;;;1.00;1.00;;;;;;;;5079991;27;46057;-52
2023/10/03 14:32:36;;;;;;;;;2.00;0.25;;;;;;;;5083459;27;45344;-51
2023/10/03 14:35:01;;;;;;;;;1.00;1.00;;;;;;;;5082516;27;45398;-53
2023/10/03 14:37:27;;;;;;;;;0.75;0.75;;;;;;;;5081351;27;45474;-51
2023/10/03 14:39:52;;;;;;;;;1.00;1.00;;;;;;;;5081519;27;45997;-52
2023/10/03 14:42:17;;;;;;;;;1.00;1.00;;;;;;;;5080895;27;45338;-51